Time;durP1;ratioP1;P1;durP2;ratioP2;P2;SDS_P1;SDS_P2;PMS_P1;PMS_P2;Temp;Humidity;BMP_temperature;BMP_pressure;BME280_temperature;BME280_humidity;BME280_pressure;Samples;Min_cycle;Max_cycle;Signal;HPM_P1;HPM_P2
2022/11/16 00:04:26;;;;;;;81.13;46.50;;;;;;;6.42;74.59;99410.31;30531945;28;96607;-66
2022/11/16 00:19:27;;;;;;;83.97;47.65;;;;;;;6.41;74.88;99403.38;30529766;28;97320;-67
2022/11/16 00:34:27;;;;;;;78.88;45.90;;;;;;;6.51;75.29;99374.09;30529435;28;96856;-67
2022/11/16 00:49:28;;;;;;;73.60;43.55;;;;;;;6.55;75.27;99374.63;30528549;28;97225;-67
2022/11/16 01:04:28;;;;;;;76.03;43.38;;;;;;;6.60;75.45;99369.63;30519790;28;96566;-67
2022/11/16 01:19:29;;;;;;;66.65;43.00;;;;;;;6.62;75.24;99359.72;30506033;28;96650;-67
2022/11/16 01:34:29;;;;;;;70.45;38.83;;;;;;;6.59;75.28;99341.53;30505590;28;97640;-67
2022/11/16 01:49:35;;;;;;;72.15;40.10;;;;;;;6.52;75.43;99341.38;30503480;28;98484;-68
2022/11/16 02:04:35;;;;;;;65.60;39.87;;;;;;;6.59;76.22;99323.81;30502462;28;96813;-67
2022/11/16 02:19:47;;;;;;;59.67;36.67;;;;;;;6.65;75.98;99314.41;30499866;28;97553;-67
2022/11/16 02:34:59;;;;;;;70.65;38.53;;;;;;;6.64;76.52;99298.69;30499753;28;96607;-67
2022/11/16 02:50:08;;;;;;;60.20;35.30;;;;;;;6.60;76.76;99296.38;30498025;28;97375;-69
2022/11/16 03:05:30;;;;;;;60.25;35.47;;;;;;;6.67;76.78;99301.84;30496711;28;97198;-67
2022/11/16 03:20:33;;;;;;;59.85;33.85;;;;;;;6.51;76.60;99301.84;30494122;28;97873;-67
2022/11/16 03:36:15;;;;;;;68.80;36.65;;;;;;;6.22;76.51;99293.41;30491161;28;96662;-67
2022/11/16 03:51:15;;;;;;;59.95;33.03;;;;;;;5.89;76.98;99282.75;30467293;28;96664;-67
2022/11/16 04:52:17;;;;;;;51.88;26.02;;;;;;;5.49;77.72;99257.03;30507097;28;96684;-68
2022/11/16 05:07:18;;;;;;;54.95;27.27;;;;;;;5.45;77.67;99245.94;30505817;28;114575;-68
2022/11/16 05:22:18;;;;;;;45.33;24.00;;;;;;;5.40;77.55;99243.81;30503202;28;96686;-67
2022/11/16 05:37:20;;;;;;;39.72;21.35;;;;;;;5.37;77.42;99243.28;30500825;28;96714;-67
2022/11/16 05:52:20;;;;;;;47.47;22.77;;;;;;;5.37;77.67;99236.19;30449031;28;98730;-66
2022/11/16 06:07:20;;;;;;;43.75;21.85;;;;;;;5.41;78.07;99232.25;30466118;28;117458;-66
2022/11/16 06:22:20;;;;;;;43.33;20.65;;;;;;;5.41;77.84;99216.41;30462383;28;113929;-66
2022/11/16 06:37:21;;;;;;;38.90;19.27;;;;;;;5.47;77.95;99203.53;30460470;28;98627;-68
2022/11/16 06:52:21;;;;;;;41.92;17.65;;;;;;;5.53;77.66;99192.31;30447040;28;100853;-66
2022/11/16 07:07:21;;;;;;;41.55;18.55;;;;;;;5.60;78.08;99209.16;30457095;28;97966;-63
2022/11/16 07:22:22;;;;;;;49.03;17.65;;;;;;;5.66;78.04;99216.47;30458347;28;98464;-63
2022/11/16 07:37:22;;;;;;;44.30;17.63;;;;;;;5.81;78.60;99199.94;30456691;28;111905;-62
2022/11/16 07:52:23;;;;;;;46.85;17.77;;;;;;;5.89;77.84;99206.09;30456022;28;97955;-63
2022/11/16 08:07:23;;;;;;;51.35;19.35;;;;;;;5.98;78.52;99206.94;30452508;28;98517;-63
2022/11/16 08:22:23;;;;;;;47.08;18.60;;;;;;;6.03;78.08;99209.09;30470105;28;97732;-61
2022/11/16 08:37:24;;;;;;;52.80;19.00;;;;;;;6.13;78.28;99217.69;30477528;28;97287;-63
2022/11/16 08:52:25;;;;;;;47.90;17.85;;;;;;;6.17;78.06;99226.13;30503328;28;96984;-63
2022/11/16 09:07:25;;;;;;;37.17;14.93;;;;;;;6.14;78.05;99229.06;30502984;28;97372;-63
2022/11/16 09:22:26;;;;;;;42.92;17.08;;;;;;;6.17;78.11;99247.28;30497506;28;97137;-63
2022/11/16 09:37:26;;;;;;;52.97;19.15;;;;;;;6.15;78.01;99234.22;30495528;28;97057;-63
2022/11/16 09:52:41;;;;;;;52.75;17.13;;;;;;;5.98;78.66;99228.09;30497235;28;96697;-62
2022/11/16 10:07:44;;;;;;;36.28;14.23;;;;;;;6.02;78.49;99210.91;30496340;28;97245;-61
2022/11/16 10:22:57;;;;;;;35.03;13.57;;;;;;;5.96;78.29;99187.75;30493768;28;96737;-62
2022/11/16 10:38:02;;;;;;;33.30;15.10;;;;;;;5.78;78.67;99174.66;30494724;28;96834;-63
2022/11/16 10:53:03;;;;;;;39.35;15.95;;;;;;;5.81;79.17;99178.81;30490878;28;97038;-64
2022/11/16 11:08:08;;;;;;;32.13;13.98;;;;;;;5.85;79.09;99174.84;30489304;28;97007;-65
2022/11/16 11:23:24;;;;;;;33.35;13.48;;;;;;;5.86;78.35;99156.16;30488480;28;97031;-66
2022/11/16 11:38:25;;;;;;;36.25;16.45;;;;;;;5.92;78.85;99152.88;30477946;28;97355;-61
2022/11/16 11:53:50;;;;;;;36.60;16.17;;;;;;;5.87;78.33;99151.72;30483003;28;97311;-64
2022/11/16 12:09:12;;;;;;;32.25;13.90;;;;;;;5.85;78.43;99132.56;30484910;28;97133;-63
2022/11/16 12:24:34;;;;;;;39.03;15.77;;;;;;;5.72;78.26;99125.13;30484477;28;96642;-61
2022/11/16 12:39:48;;;;;;;27.10;12.63;;;;;;;5.63;78.63;99113.75;30483531;28;96681;-63
2022/11/16 12:55:27;;;;;;;27.75;12.18;;;;;;;5.59;78.77;99112.41;30480777;28;96638;-63
2022/11/16 13:10:37;;;;;;;25.20;11.52;;;;;;;5.59;78.23;99105.31;30491685;28;97533;-63
2022/11/16 13:25:49;;;;;;;27.23;12.38;;;;;;;5.58;78.67;99103.66;30500036;28;97014;-65
2022/11/16 13:40:49;;;;;;;30.23;14.35;;;;;;;5.55;78.97;99124.28;30498087;28;96683;-66
2022/11/16 13:56:01;;;;;;;26.33;15.05;;;;;;;5.49;78.59;99132.88;30498096;28;96580;-65
2022/11/16 14:11:02;;;;;;;27.77;14.07;;;;;;;5.54;78.80;99120.81;30461250;28;97608;-65
2022/11/16 14:26:24;;;;;;;28.17;14.23;;;;;;;5.54;78.77;99112.09;30494110;28;96814;-63
2022/11/16 14:41:24;;;;;;;29.55;14.40;;;;;;;5.49;78.66;99103.81;30481475;28;97116;-61
2022/11/16 14:56:25;;;;;;;21.35;12.23;;;;;;;5.43;78.84;99103.47;30471012;28;96987;-61
2022/11/16 15:26:51;;;;;;;13.40;9.43;;;;;;;5.35;79.20;99106.13;30471798;28;97853;-65
2022/11/16 15:41:53;;;;;;;14.35;7.55;;;;;;;5.49;79.07;99101.19;30490852;28;97006;-78
2022/11/16 15:57:10;;;;;;;12.98;6.90;;;;;;;5.33;79.07;99094.06;30517315;28;97012;-65
2022/11/16 16:12:15;;;;;;;12.30;7.45;;;;;;;5.20;79.10;99097.19;30452088;28;96651;-62
2022/11/16 16:27:20;;;;;;;19.38;9.88;;;;;;;5.04;79.44;99098.81;30467891;28;96693;-64
2022/11/16 16:42:21;;;;;;;14.88;9.32;;;;;;;5.01;79.61;99093.03;30425519;28;96740;-63
2022/11/16 16:57:21;;;;;;;14.45;8.63;;;;;;;5.00;79.67;99101.91;30387583;28;97251;-70
2022/11/16 17:12:22;;;;;;;15.20;7.30;;;;;;;4.97;79.86;99103.06;30385375;28;97432;-70
2022/11/16 17:27:22;;;;;;;15.48;8.25;;;;;;;4.94;79.82;99087.56;30485100;28;96838;-69
2022/11/16 17:42:22;;;;;;;16.70;8.70;;;;;;;4.88;79.75;99102.22;30489579;28;97549;-68
2022/11/16 17:57:23;;;;;;;9.05;5.35;;;;;;;4.73;79.50;99107.28;30461128;28;98370;-64
2022/11/16 18:12:23;;;;;;;8.95;4.70;;;;;;;4.62;79.43;99114.63;30469985;28;97037;-65
2022/11/16 18:27:24;;;;;;;11.82;6.05;;;;;;;4.54;79.33;99118.91;30468225;28;97270;-65
2022/11/16 18:42:24;;;;;;;10.55;6.65;;;;;;;4.53;79.84;99103.25;30452577;28;98064;-66
2022/11/16 18:57:25;;;;;;;8.77;5.47;;;;;;;4.54;79.81;99097.81;30454094;28;97810;-64
2022/11/16 19:12:25;;;;;;;9.50;5.50;;;;;;;4.46;79.70;99086.41;30456693;28;97883;-65
2022/11/16 19:27:26;;;;;;;9.13;5.32;;;;;;;4.45;79.79;99082.91;30462277;28;97334;-68
2022/11/16 19:42:27;;;;;;;7.82;5.60;;;;;;;4.38;79.75;99095.09;30451539;28;97882;-62
2022/11/16 19:57:27;;;;;;;8.98;6.18;;;;;;;4.30;79.58;99095.88;30453546;28;97374;-64
2022/11/16 20:12:27;;;;;;;13.10;8.75;;;;;;;4.30;79.89;99090.59;30458711;28;97175;-67
2022/11/16 20:27:28;;;;;;;12.10;7.65;;;;;;;4.26;79.87;99097.16;30498458;28;97592;-66
2022/11/16 20:42:28;;;;;;;11.70;7.35;;;;;;;4.15;79.86;99106.16;30497849;28;97129;-67
2022/11/16 20:57:29;;;;;;;10.88;6.85;;;;;;;4.03;80.12;99099.50;30499186;28;97208;-66
2022/11/16 21:27:48;;;;;;;8.02;5.53;;;;;;;3.97;80.13;99095.66;30492793;28;97517;-67
2022/11/16 21:42:50;;;;;;;7.20;5.43;;;;;;;3.96;80.21;99098.47;30491438;28;97530;-66
2022/11/16 21:57:51;;;;;;;10.63;6.72;;;;;;;3.96;80.30;99103.72;30498563;28;97305;-62
2022/11/16 22:12:51;;;;;;;11.07;7.35;;;;;;;3.94;80.17;99111.78;30497495;28;96895;-66
2022/11/16 22:27:52;;;;;;;7.80;5.40;;;;;;;3.89;80.63;99116.69;30500302;28;96731;-67
2022/11/16 22:42:56;;;;;;;9.40;5.70;;;;;;;3.78;80.66;99120.41;30498270;28;97165;-66
2022/11/16 22:57:56;;;;;;;10.80;6.10;;;;;;;3.73;80.52;99115.59;30498018;28;97079;-67
2022/11/16 23:28:18;;;;;;;8.65;6.05;;;;;;;3.70;80.69;99104.53;30495241;28;96985;-67
2022/11/16 23:58:37;;;;;;;12.50;8.43;;;;;;;3.67;80.88;99079.31;30492855;28;96620;-67
